createdAt,value
2022-12-11T00:00:05.238Z,26.65
2022-12-11T00:02:31.660Z,22.27
2022-12-11T00:04:58.020Z,22.45
2022-12-11T00:07:24.471Z,22.52
2022-12-11T00:09:50.833Z,23.10
2022-12-11T00:12:17.167Z,22.60
2022-12-11T00:14:43.549Z,25.05
2022-12-11T00:17:10.186Z,24.00
2022-12-11T00:19:36.617Z,25.40
2022-12-11T00:22:03.258Z,25.60
2022-12-11T00:24:29.609Z,25.20
2022-12-11T00:26:55.995Z,24.05
2022-12-11T00:29:22.404Z,25.95
2022-12-11T00:31:48.779Z,28.20
2022-12-11T00:34:15.209Z,27.33
2022-12-11T00:36:41.593Z,27.05
2022-12-11T00:39:08.105Z,26.65
2022-12-11T00:41:34.488Z,27.05
2022-12-11T00:44:01.240Z,22.50
2022-12-11T00:46:27.595Z,22.23
2022-12-11T00:48:54.008Z,22.55
2022-12-11T00:51:20.429Z,22.13
2022-12-11T00:53:46.908Z,21.45
2022-12-11T00:56:15.846Z,22.75
2022-12-11T00:58:42.231Z,24.35
2022-12-11T01:01:12.448Z,23.08
2022-12-11T01:03:39.338Z,22.88
2022-12-11T01:06:06.526Z,22.95
2022-12-11T01:08:38.366Z,22.08
2022-12-11T01:11:08.867Z,22.15
2022-12-11T01:13:36.069Z,23.23
2022-12-11T01:16:11.462Z,22.50
2022-12-11T01:18:38.150Z,22.52
2022-12-11T01:21:13.781Z,22.80
2022-12-11T01:23:40.639Z,22.42
2022-12-11T01:26:13.525Z,21.15
2022-12-11T01:28:40.592Z,21.98
2022-12-11T01:31:11.546Z,21.20
2022-12-11T01:33:38.996Z,20.90
2022-12-11T01:36:18.122Z,21.10
2022-12-11T01:38:45.835Z,21.10
2022-12-11T01:41:12.599Z,21.95
2022-12-11T01:43:57.829Z,20.58
2022-12-11T01:46:24.724Z,21.35
2022-12-11T01:48:53.500Z,20.65
2022-12-11T01:51:20.532Z,19.83
2022-12-11T01:53:54.100Z,21.40
2022-12-11T01:56:20.682Z,21.40
2022-12-11T01:58:52.070Z,22.02
2022-12-11T02:01:45.035Z,20.02
2022-12-11T02:04:13.470Z,21.45
2022-12-11T02:06:43.168Z,19.70
2022-12-11T02:09:13.849Z,21.42
2022-12-11T02:12:03.351Z,19.73
2022-12-11T02:14:44.228Z,20.58
2022-12-11T02:17:31.991Z,20.17
2022-12-11T02:20:08.251Z,23.52
2022-12-11T02:23:07.561Z,21.55
2022-12-11T02:25:46.000Z,23.98
2022-12-11T02:28:51.958Z,23.70
2022-12-11T02:31:44.783Z,24.13
2022-12-11T02:34:18.278Z,22.85
2022-12-11T02:36:51.320Z,22.83
2022-12-11T02:39:19.207Z,24.35
2022-12-11T02:41:49.758Z,23.85
2022-12-11T02:44:20.731Z,23.55
2022-12-11T02:46:47.119Z,23.80
2022-12-11T02:49:14.923Z,24.48
2022-12-11T02:51:42.807Z,22.38
2022-12-11T02:54:16.508Z,24.70
2022-12-11T02:56:51.080Z,22.70
2022-12-11T02:59:32.883Z,22.08
2022-12-11T03:01:59.287Z,21.73
2022-12-11T03:04:25.675Z,20.40
2022-12-11T03:06:56.411Z,20.25
2022-12-11T03:09:22.828Z,20.30
2022-12-11T03:11:49.187Z,20.50
2022-12-11T03:14:15.731Z,19.20
2022-12-11T03:16:56.721Z,18.30
2022-12-11T03:19:35.465Z,19.50
2022-12-11T03:22:26.581Z,20.67
2022-12-11T03:25:08.605Z,20.35
2022-12-11T03:27:44.888Z,19.45
2022-12-11T03:30:16.227Z,20.85
2022-12-11T03:32:56.866Z,21.02
2022-12-11T03:35:43.918Z,20.42
2022-12-11T03:38:18.636Z,21.08
2022-12-11T03:40:47.584Z,20.00
2022-12-11T03:43:16.155Z,22.25
2022-12-11T03:45:44.766Z,22.60
2022-12-11T03:48:13.992Z,22.67
2022-12-11T03:50:41.557Z,22.90
2022-12-11T03:53:08.304Z,21.58
2022-12-11T03:55:37.624Z,22.30
2022-12-11T03:58:05.117Z,23.02
2022-12-11T04:00:31.891Z,22.63
2022-12-11T04:03:14.467Z,23.20
2022-12-11T04:05:43.674Z,22.58
2022-12-11T04:08:10.724Z,23.30
2022-12-11T04:10:37.115Z,22.20
2022-12-11T04:13:03.564Z,22.98
2022-12-11T04:15:29.938Z,23.30
2022-12-11T04:18:14.964Z,22.65
2022-12-11T04:20:59.793Z,25.23
2022-12-11T04:23:44.619Z,21.10
2022-12-11T04:26:14.025Z,22.15
2022-12-11T04:28:41.404Z,23.88
2022-12-11T04:31:14.965Z,20.65
2022-12-11T04:33:41.590Z,23.00
2022-12-11T04:36:08.652Z,22.65
2022-12-11T04:38:35.377Z,21.05
2022-12-11T04:41:05.040Z,21.15
2022-12-11T04:43:31.577Z,23.25
2022-12-11T04:46:03.197Z,20.85
2022-12-11T04:48:29.775Z,22.60
2022-12-11T04:50:56.228Z,21.95
2022-12-11T04:53:22.599Z,21.80
2022-12-11T04:55:49.025Z,20.20
2022-12-11T04:58:15.400Z,23.05
2022-12-11T05:00:42.134Z,20.58
2022-12-11T05:03:09.040Z,21.92
2022-12-11T05:05:35.709Z,21.45
2022-12-11T05:08:02.109Z,21.92
2022-12-11T05:10:28.611Z,21.05
2022-12-11T05:12:54.976Z,19.63
2022-12-11T05:15:21.455Z,19.83
2022-12-11T05:17:47.797Z,18.42
2022-12-11T05:20:14.292Z,18.27
2022-12-11T05:22:40.669Z,19.95
2022-12-11T05:25:07.992Z,18.95
2022-12-11T05:27:34.432Z,18.85
2022-12-11T05:30:00.813Z,19.02
2022-12-11T05:32:27.187Z,19.23
2022-12-11T05:34:53.595Z,19.25
2022-12-11T05:37:20.006Z,18.35
2022-12-11T05:39:46.453Z,19.65
2022-12-11T05:42:12.841Z,18.35
2022-12-11T05:44:39.264Z,20.75
2022-12-11T05:47:05.637Z,20.20
2022-12-11T05:49:32.022Z,20.70
2022-12-11T05:51:58.358Z,20.17
2022-12-11T05:54:24.743Z,19.38
2022-12-11T05:56:51.438Z,20.15
2022-12-11T05:59:19.575Z,20.42
2022-12-11T06:01:46.089Z,19.45
2022-12-11T06:04:13.629Z,20.65
2022-12-11T06:06:40.602Z,19.10
2022-12-11T06:09:07.473Z,21.40
2022-12-11T06:11:34.449Z,20.80
2022-12-11T06:14:02.352Z,19.88
2022-12-11T06:16:28.775Z,22.45
2022-12-11T06:18:58.165Z,20.65
2022-12-11T06:21:30.493Z,19.92
2022-12-11T06:23:58.855Z,20.80
2022-12-11T06:26:26.120Z,20.60
2022-12-11T06:28:52.960Z,21.75
2022-12-11T06:31:20.123Z,21.27
2022-12-11T06:33:47.224Z,20.45
2022-12-11T06:36:16.785Z,21.73
2022-12-11T06:38:43.433Z,21.05
2022-12-11T06:41:10.192Z,21.25
2022-12-11T06:43:38.244Z,20.52
2022-12-11T06:46:06.004Z,20.30
2022-12-11T06:48:33.110Z,22.33
2022-12-11T06:50:59.594Z,21.33
2022-12-11T06:53:26.082Z,22.10
2022-12-11T06:55:52.444Z,20.48
2022-12-11T06:58:18.947Z,19.13
2022-12-11T07:00:45.452Z,20.75
2022-12-11T07:03:13.654Z,22.20
2022-12-11T07:05:40.095Z,20.90
2022-12-11T07:08:07.393Z,20.27
2022-12-11T07:10:33.997Z,21.50
2022-12-11T07:13:00.453Z,22.38
2022-12-11T07:15:26.840Z,22.08
2022-12-11T07:17:53.287Z,20.00
2022-12-11T07:20:19.938Z,21.40
2022-12-11T07:22:46.943Z,21.95
2022-12-11T07:25:13.982Z,22.17
2022-12-11T07:27:41.452Z,20.65
2022-12-11T07:30:09.077Z,21.63
2022-12-11T07:32:35.633Z,19.40
2022-12-11T07:35:02.152Z,21.83
2022-12-11T07:37:28.553Z,23.17
2022-12-11T07:39:55.038Z,23.02
2022-12-11T07:42:21.468Z,22.23
2022-12-11T07:44:48.564Z,22.35
2022-12-11T07:47:15.073Z,22.10
2022-12-11T07:49:41.471Z,21.30
2022-12-11T07:52:07.860Z,21.85
2022-12-11T07:54:34.240Z,20.10
2022-12-11T07:57:00.642Z,21.73
2022-12-11T07:59:26.982Z,22.00
2022-12-11T08:01:53.428Z,19.85
2022-12-11T08:04:20.154Z,17.63
2022-12-11T08:06:47.691Z,19.25
2022-12-11T08:09:21.120Z,18.88
2022-12-11T08:11:51.612Z,18.60
2022-12-11T08:14:18.495Z,18.90
2022-12-11T08:16:45.014Z,17.50
2022-12-11T08:19:12.226Z,17.27
2022-12-11T08:21:38.765Z,16.73
2022-12-11T08:24:05.333Z,17.00
2022-12-11T08:26:31.993Z,18.20
2022-12-11T08:28:59.041Z,16.55
2022-12-11T08:31:26.320Z,16.50
2022-12-11T08:33:52.990Z,16.50
2022-12-11T08:36:21.459Z,17.17
2022-12-11T08:38:48.709Z,17.65
2022-12-11T08:41:24.624Z,16.80
2022-12-11T08:43:55.092Z,15.82
2022-12-11T08:46:24.148Z,15.98
2022-12-11T08:48:51.040Z,15.85
2022-12-11T08:51:20.775Z,16.67
2022-12-11T08:53:47.299Z,16.40
2022-12-11T08:56:19.774Z,16.38
2022-12-11T08:58:47.458Z,16.77
2022-12-11T09:01:25.442Z,15.73
2022-12-11T09:03:53.490Z,16.42
2022-12-11T09:06:22.681Z,16.20
2022-12-11T09:08:52.961Z,17.73
2022-12-11T09:11:25.658Z,16.92
2022-12-11T09:13:52.561Z,16.42
2022-12-11T09:16:21.923Z,16.67
2022-12-11T09:18:50.406Z,16.25
2022-12-11T09:21:20.889Z,16.35
2022-12-11T09:23:48.009Z,17.15
2022-12-11T09:26:18.018Z,15.70
2022-12-11T09:28:46.931Z,15.63
2022-12-11T09:31:16.749Z,16.85
2022-12-11T09:33:43.672Z,15.65
2022-12-11T09:40:38.487Z,16.05
2022-12-11T09:43:31.512Z,15.27
2022-12-11T09:46:03.037Z,15.63
2022-12-11T09:48:33.464Z,16.00
2022-12-11T09:51:12.041Z,15.20
2022-12-11T09:53:38.968Z,14.63
2022-12-11T09:56:17.954Z,15.70
2022-12-11T09:59:05.571Z,15.98
2022-12-11T10:01:45.636Z,15.45
2022-12-11T10:04:44.634Z,15.00
2022-12-11T10:07:13.835Z,15.85
2022-12-11T10:09:43.036Z,14.20
2022-12-11T10:12:12.603Z,14.23
2022-12-11T10:15:12.877Z,15.95
2022-12-11T10:17:41.844Z,15.00
2022-12-11T10:20:33.268Z,15.70
2022-12-11T10:22:59.799Z,16.17
2022-12-11T10:25:30.003Z,16.48
2022-12-11T10:27:57.458Z,17.80
2022-12-11T10:30:36.967Z,17.60
2022-12-11T10:33:22.599Z,17.58
2022-12-11T10:38:42.448Z,17.00
2022-12-11T10:41:16.238Z,17.60
2022-12-11T10:43:47.601Z,17.90
2022-12-11T10:46:25.730Z,18.42
2022-12-11T10:49:01.844Z,17.13
2022-12-11T10:51:30.946Z,19.08
2022-12-11T10:54:07.161Z,19.05
2022-12-11T10:56:37.427Z,18.27
2022-12-11T10:59:04.339Z,18.48
2022-12-11T11:01:32.502Z,17.75
2022-12-11T11:04:06.552Z,18.67
2022-12-11T11:06:33.456Z,18.67
2022-12-11T11:09:01.658Z,18.23
2022-12-11T11:11:29.548Z,20.33
2022-12-11T11:14:13.350Z,16.98
2022-12-11T11:16:41.288Z,17.25
2022-12-11T11:19:16.360Z,17.50
2022-12-11T11:21:50.697Z,17.85
2022-12-11T11:24:28.611Z,18.73
2022-12-11T11:27:12.841Z,19.00
2022-12-11T11:29:41.954Z,18.70
2022-12-11T11:32:20.183Z,20.13
2022-12-11T11:34:46.710Z,19.13
2022-12-11T11:37:47.100Z,19.30
2022-12-11T11:40:21.800Z,18.63
2022-12-11T11:43:07.535Z,19.67
2022-12-11T11:45:51.850Z,18.55
2022-12-11T11:48:48.844Z,18.98
2022-12-11T11:51:33.095Z,19.08
2022-12-11T11:54:01.927Z,19.67
2022-12-11T11:56:36.223Z,18.98
2022-12-11T11:59:36.318Z,20.67
2022-12-11T12:02:13.279Z,20.67
2022-12-11T12:04:39.793Z,20.73
2022-12-11T12:07:35.935Z,19.73
2022-12-11T12:10:16.674Z,18.80
2022-12-11T12:13:18.647Z,18.73
2022-12-11T12:16:02.749Z,19.30
2022-12-11T12:18:39.125Z,20.10
2022-12-11T12:21:36.977Z,19.23
2022-12-11T12:24:28.239Z,19.83
2022-12-11T12:27:50.888Z,21.63
2022-12-11T12:30:22.053Z,18.80
2022-12-11T12:32:58.397Z,19.55
2022-12-11T12:35:40.860Z,18.83
2022-12-11T12:38:21.711Z,19.13
2022-12-11T12:41:13.991Z,21.02
2022-12-11T12:44:00.307Z,20.40
2022-12-11T12:46:34.175Z,18.65
2022-12-11T12:49:02.430Z,16.75
2022-12-11T12:51:30.259Z,16.90
2022-12-11T12:54:03.870Z,18.05
2022-12-11T12:56:33.944Z,17.40
2022-12-11T12:59:00.270Z,17.55
2022-12-11T13:01:30.426Z,17.48
2022-12-11T13:04:02.160Z,17.58
2022-12-11T13:06:41.513Z,18.00
2022-12-11T13:09:15.799Z,18.48
2022-12-11T13:11:42.455Z,17.80
2022-12-11T13:14:23.625Z,17.17
2022-12-11T13:16:52.540Z,17.92
2022-12-11T13:19:27.590Z,20.05
2022-12-11T13:22:21.544Z,20.27
2022-12-11T13:25:01.466Z,18.63
2022-12-11T13:27:43.437Z,19.25
2022-12-11T13:30:16.141Z,18.70
2022-12-11T13:32:54.371Z,19.30
2022-12-11T13:35:21.104Z,18.95
2022-12-11T13:37:51.944Z,19.77
2022-12-11T13:40:25.846Z,20.20
2022-12-11T13:42:56.581Z,20.13
2022-12-11T13:45:29.438Z,20.65
2022-12-11T13:47:59.524Z,18.45
2022-12-11T13:50:32.790Z,19.20
2022-12-11T13:53:02.734Z,17.70
2022-12-11T13:55:34.553Z,19.83
2022-12-11T13:58:01.002Z,19.45
2022-12-11T14:00:32.525Z,19.95
2022-12-11T14:03:04.729Z,19.40
2022-12-11T14:05:31.462Z,20.58
2022-12-11T14:08:02.758Z,20.42
2022-12-11T14:10:32.856Z,19.67
2022-12-11T14:12:59.173Z,20.40
2022-12-11T14:15:28.046Z,20.33
2022-12-11T14:17:55.681Z,20.33
2022-12-11T14:20:27.834Z,19.88
2022-12-11T14:23:31.757Z,20.35
2022-12-11T14:26:04.676Z,19.65
2022-12-11T14:28:37.920Z,19.58
2022-12-11T14:31:05.698Z,19.70
2022-12-11T14:33:36.906Z,20.35
2022-12-11T14:36:05.001Z,20.90
2022-12-11T14:38:44.463Z,20.05
2022-12-11T14:41:19.657Z,21.13
2022-12-11T14:46:23.613Z,20.63
2022-12-11T14:49:00.555Z,20.05
2022-12-11T14:51:34.789Z,21.33
2022-12-11T14:54:02.970Z,21.90
2022-12-11T14:56:30.210Z,21.35
2022-12-11T14:59:00.985Z,20.95
2022-12-11T15:01:33.348Z,21.40
2022-12-11T15:04:02.549Z,20.63
2022-12-11T15:06:33.100Z,20.90
2022-12-11T15:09:24.809Z,20.27
2022-12-11T15:11:52.425Z,19.38
2022-12-11T15:14:20.692Z,21.13
2022-12-11T15:16:49.108Z,21.13
2022-12-11T15:19:24.460Z,20.35
2022-12-11T15:21:51.494Z,22.58
2022-12-11T15:24:38.229Z,20.83
2022-12-11T15:27:05.131Z,21.40
2022-12-11T15:29:39.836Z,21.10
2022-12-11T15:32:08.940Z,21.80
2022-12-11T15:34:52.164Z,21.50
2022-12-11T15:37:29.257Z,21.27
2022-12-11T15:39:57.286Z,20.48
2022-12-11T15:42:31.228Z,21.20
2022-12-11T15:44:58.890Z,20.88
2022-12-11T15:47:28.008Z,20.90
2022-12-11T15:49:58.648Z,20.60
2022-12-11T15:52:25.461Z,20.35
2022-12-11T15:54:51.870Z,21.08
2022-12-11T15:57:21.572Z,21.30
2022-12-11T15:59:50.023Z,18.95
2022-12-11T16:02:17.094Z,20.60
2022-12-11T16:04:43.762Z,20.52
2022-12-11T16:07:18.041Z,20.65
2022-12-11T16:09:45.618Z,23.60
2022-12-11T16:12:13.353Z,20.95
2022-12-11T16:14:41.302Z,19.30
2022-12-11T16:17:08.900Z,19.83
2022-12-11T16:19:36.400Z,19.38
2022-12-11T16:22:03.502Z,19.98
2022-12-11T16:24:29.895Z,20.17
2022-12-11T16:26:56.310Z,21.75
2022-12-11T16:29:22.833Z,20.85
2022-12-11T16:31:49.307Z,23.75
2022-12-11T16:34:16.013Z,21.58
2022-12-11T16:36:42.420Z,21.10
2022-12-11T16:39:11.205Z,19.73
2022-12-11T16:41:38.078Z,19.95
2022-12-11T16:44:04.726Z,24.10
2022-12-11T16:46:31.259Z,27.75
2022-12-11T16:48:57.661Z,22.63
2022-12-11T16:51:24.305Z,21.65
2022-12-11T16:53:50.827Z,22.40
2022-12-11T16:56:17.534Z,21.30
2022-12-11T16:58:43.922Z,19.63
2022-12-11T17:01:15.451Z,21.42
2022-12-11T17:03:43.185Z,18.70
2022-12-11T17:06:12.289Z,19.73
2022-12-11T17:08:39.565Z,20.73
2022-12-11T17:11:10.463Z,19.88
2022-12-11T17:13:37.580Z,20.58
2022-12-11T17:16:08.967Z,20.55
2022-12-11T17:18:35.541Z,19.27
2022-12-11T17:21:07.062Z,19.05
2022-12-11T17:23:34.818Z,19.30
2022-12-11T17:26:02.475Z,19.45
2022-12-11T17:28:29.995Z,20.40
2022-12-11T17:30:56.824Z,20.38
2022-12-11T17:33:23.820Z,19.98
2022-12-11T17:35:50.208Z,19.30
2022-12-11T17:38:16.574Z,21.63
2022-12-11T17:40:44.006Z,19.33
2022-12-11T17:43:12.065Z,19.75
2022-12-11T17:45:43.643Z,20.00
2022-12-11T17:48:10.338Z,18.58
2022-12-11T17:50:41.469Z,19.25
2022-12-11T17:53:08.308Z,20.02
2022-12-11T17:55:36.052Z,19.67
2022-12-11T17:58:02.891Z,19.60
2022-12-11T18:00:33.200Z,18.30
2022-12-11T18:03:00.094Z,19.65
2022-12-11T18:05:26.525Z,18.58
2022-12-11T18:07:57.448Z,18.83
2022-12-11T18:10:24.512Z,20.00
2022-12-11T18:12:50.839Z,20.30
2022-12-11T18:15:19.538Z,19.98
2022-12-11T18:17:46.135Z,19.90
2022-12-11T18:20:14.630Z,20.20
2022-12-11T18:22:41.092Z,19.60
2022-12-11T18:25:10.435Z,19.77
2022-12-11T18:27:38.514Z,20.85
2022-12-11T18:30:05.874Z,19.40
2022-12-11T18:32:32.243Z,19.30
2022-12-11T18:34:58.575Z,18.70
2022-12-11T18:37:28.065Z,17.63
2022-12-11T18:39:54.682Z,18.08
2022-12-11T18:42:36.429Z,17.50
2022-12-11T18:45:02.871Z,19.08
2022-12-11T18:47:29.307Z,18.55
2022-12-11T18:49:55.761Z,18.73
2022-12-11T18:52:22.104Z,18.65
2022-12-11T18:54:49.137Z,18.42
2022-12-11T18:57:15.514Z,18.65
2022-12-11T18:59:41.914Z,17.85
2022-12-11T19:02:08.480Z,18.75
2022-12-11T19:04:36.086Z,17.25
2022-12-11T19:07:02.578Z,18.33
2022-12-11T19:09:32.821Z,17.90
2022-12-11T19:12:04.024Z,18.70
2022-12-11T19:14:30.384Z,17.77
2022-12-11T19:16:56.838Z,17.60
2022-12-11T19:19:23.248Z,18.08
2022-12-11T19:21:50.150Z,20.15
2022-12-11T19:24:22.432Z,16.70
2022-12-11T19:26:49.172Z,18.60
2022-12-11T19:29:32.440Z,18.75
2022-12-11T19:31:59.076Z,17.98
2022-12-11T19:34:25.542Z,17.30
2022-12-11T19:36:51.922Z,17.05
2022-12-11T19:39:19.615Z,18.48
2022-12-11T19:41:46.833Z,18.23
2022-12-11T19:44:13.210Z,17.95
2022-12-11T19:46:40.231Z,19.77
2022-12-11T19:49:06.761Z,18.80
2022-12-11T19:51:38.197Z,18.15
2022-12-11T19:54:06.815Z,18.27
2022-12-11T19:56:34.784Z,17.17
2022-12-11T19:59:06.425Z,19.42
2022-12-11T20:01:35.768Z,18.92
2022-12-11T20:04:05.927Z,18.85
2022-12-11T20:06:34.971Z,18.13
2022-12-11T20:09:02.146Z,18.42
2022-12-11T20:11:29.219Z,19.25
2022-12-11T20:13:55.932Z,19.13
2022-12-11T20:16:45.828Z,19.25
2022-12-11T20:19:09.566Z,19.00
2022-12-11T20:21:35.905Z,18.90
2022-12-11T20:24:02.307Z,18.45
2022-12-11T20:26:30.933Z,19.83
2022-12-11T20:28:57.400Z,19.88
2022-12-11T20:31:25.521Z,18.42
2022-12-11T20:33:53.549Z,19.83
2022-12-11T20:36:21.593Z,19.00
2022-12-11T20:38:48.730Z,18.50
2022-12-11T20:41:18.839Z,19.98
2022-12-11T20:43:45.412Z,18.27
2022-12-11T20:46:14.924Z,18.95
2022-12-11T20:48:42.719Z,20.45
2022-12-11T20:51:11.587Z,19.85
2022-12-11T20:53:38.615Z,19.80
2022-12-11T20:56:13.129Z,18.98
2022-12-11T20:58:40.302Z,20.08
2022-12-11T21:01:06.923Z,19.52
2022-12-11T21:03:40.420Z,19.20
2022-12-11T21:06:16.811Z,19.73
2022-12-11T21:08:43.142Z,18.92
2022-12-11T21:11:09.501Z,19.30
2022-12-11T21:13:37.256Z,20.60
2022-12-11T21:16:06.117Z,19.55
2022-12-11T21:18:32.598Z,19.67
2022-12-11T21:20:59.523Z,18.35
2022-12-11T21:23:26.872Z,20.50
2022-12-11T21:25:53.743Z,20.13
2022-12-11T21:28:20.438Z,20.77
2022-12-11T21:30:46.931Z,20.83
2022-12-11T21:33:13.267Z,19.95
2022-12-11T21:35:39.660Z,19.40
2022-12-11T21:38:06.126Z,19.73
2022-12-11T21:40:32.464Z,20.13
2022-12-11T21:42:58.859Z,18.83
2022-12-11T21:45:59.303Z,18.88
2022-12-11T21:48:11.689Z,19.67
2022-12-11T21:50:38.076Z,19.67
2022-12-11T21:53:04.449Z,18.88
2022-12-11T21:55:30.801Z,19.55
2022-12-11T21:57:57.213Z,20.08
2022-12-11T22:00:23.804Z,19.65
2022-12-11T22:02:50.535Z,19.33
2022-12-11T22:05:16.924Z,18.33
2022-12-11T22:07:43.349Z,20.38
2022-12-11T22:10:10.120Z,19.55
2022-12-11T22:12:36.463Z,20.40
2022-12-11T22:15:03.755Z,18.25
2022-12-11T22:17:31.561Z,18.80
2022-12-11T22:19:57.876Z,18.40
2022-12-11T22:22:24.245Z,18.52
2022-12-11T22:24:50.721Z,17.90
2022-12-11T22:27:23.273Z,18.55
2022-12-11T22:29:50.191Z,18.30
2022-12-11T22:32:16.545Z,17.92
2022-12-11T22:34:42.975Z,18.40
2022-12-11T22:37:09.313Z,19.15
2022-12-11T22:39:35.687Z,19.27
2022-12-11T22:42:02.138Z,18.48
2022-12-11T22:44:28.526Z,19.23
2022-12-11T22:46:54.928Z,19.27
2022-12-11T22:49:21.361Z,19.02
2022-12-11T22:51:48.992Z,18.67
2022-12-11T22:54:15.467Z,19.35
2022-12-11T22:56:41.956Z,19.00
2022-12-11T22:59:08.354Z,17.55
2022-12-11T23:01:34.790Z,18.25
2022-12-11T23:04:01.297Z,19.02
2022-12-11T23:06:27.706Z,18.67
2022-12-11T23:08:57.989Z,18.10
2022-12-11T23:11:28.777Z,17.67
2022-12-11T23:13:56.149Z,17.27
2022-12-11T23:16:25.889Z,17.88
2022-12-11T23:18:53.012Z,17.58
2022-12-11T23:21:20.106Z,18.85
2022-12-11T23:23:46.687Z,19.15
2022-12-11T23:26:14.650Z,18.65
2022-12-11T23:28:41.599Z,18.13
2022-12-11T23:31:08.882Z,18.40
2022-12-11T23:33:35.343Z,17.67
2022-12-11T23:36:02.121Z,19.55
2022-12-11T23:38:28.620Z,18.65
2022-12-11T23:40:55.456Z,18.50
2022-12-11T23:43:22.291Z,18.98
2022-12-11T23:45:48.813Z,19.13
2022-12-11T23:48:15.640Z,19.35
2022-12-11T23:50:42.910Z,19.05
2022-12-11T23:53:09.850Z,19.23
2022-12-11T23:55:38.874Z,18.25
2022-12-11T23:58:05.528Z,17.45
